createdAt,value
2022-09-12T00:01:48.821Z,101406.09
2022-09-12T00:04:15.503Z,101407.91
2022-09-12T00:06:42.256Z,101404.75
2022-09-12T00:09:12.594Z,101404.50
2022-09-12T00:11:41.737Z,101405.78
2022-09-12T00:14:09.932Z,101395.28
2022-09-12T00:16:37.171Z,101402.06
2022-09-12T00:19:04.891Z,101398.91
2022-09-12T00:21:34.280Z,101399.94
2022-09-12T00:24:01.290Z,101396.00
2022-09-12T00:26:27.920Z,101392.84
2022-09-12T00:28:54.912Z,101385.72
2022-09-12T00:31:26.709Z,101394.38
2022-09-12T00:33:56.139Z,101391.75
2022-09-12T00:36:24.587Z,101383.59
2022-09-12T00:38:52.238Z,101387.53
2022-09-12T00:41:31.537Z,101381.47
2022-09-12T00:44:22.562Z,101370.97
2022-09-12T00:47:00.267Z,101383.53
2022-09-12T00:49:40.576Z,101378.78
2022-09-12T00:52:07.089Z,101376.41
2022-09-12T00:54:42.959Z,101376.66
2022-09-12T00:57:13.318Z,101385.03
2022-09-12T00:59:47.131Z,101367.19
2022-09-12T01:02:13.808Z,101368.47
2022-09-12T01:04:42.533Z,101371.09
2022-09-12T01:07:09.124Z,101364.28
2022-09-12T01:09:37.869Z,101361.09
2022-09-12T01:12:05.992Z,101361.31
2022-09-12T01:14:32.638Z,101362.31
2022-09-12T01:16:59.422Z,101368.09
2022-09-12T01:20:03.231Z,101358.09
2022-09-12T01:22:48.192Z,101359.13
2022-09-12T01:25:29.936Z,101360.94
2022-09-12T01:28:47.072Z,101349.38
2022-09-12T01:31:23.899Z,101354.34
2022-09-12T01:33:57.987Z,101353.78
2022-09-12T01:36:48.310Z,101355.09
2022-09-12T01:39:26.879Z,101356.13
2022-09-12T01:42:15.176Z,101349.50
2022-09-12T01:44:59.339Z,101355.00
2022-09-12T01:47:41.327Z,101359.16
2022-09-12T01:50:16.283Z,101350.53
2022-09-12T01:52:53.842Z,101342.91
2022-09-12T01:55:26.827Z,101346.81
2022-09-12T01:58:08.503Z,101349.41
2022-09-12T02:00:43.369Z,101346.25
2022-09-12T02:03:17.586Z,101351.72
2022-09-12T02:05:52.209Z,101341.97
2022-09-12T02:08:25.917Z,101338.28
2022-09-12T02:10:55.966Z,101337.22
2022-09-12T02:13:29.459Z,101339.03
2022-09-12T02:16:03.554Z,101333.78
2022-09-12T02:18:33.763Z,101335.06
2022-09-12T02:21:03.049Z,101337.69
2022-09-12T02:23:31.873Z,101340.28
2022-09-12T02:26:05.876Z,101331.34
2022-09-12T02:28:39.823Z,101333.94
2022-09-12T02:31:24.884Z,101330.81
2022-09-12T02:34:09.587Z,101333.91
2022-09-12T02:37:02.191Z,101332.03
2022-09-12T02:39:29.049Z,101323.91
2022-09-12T02:41:58.948Z,101323.91
2022-09-12T02:44:28.255Z,101323.06
2022-09-12T02:47:01.174Z,101318.59
2022-09-12T02:49:27.823Z,101322.78
2022-09-12T02:51:54.927Z,101321.19
2022-09-12T02:54:21.830Z,101323.78
2022-09-12T02:56:48.409Z,101317.75
2022-09-12T02:59:19.652Z,101314.31
2022-09-12T03:02:28.142Z,101316.91
2022-09-12T03:05:31.797Z,101327.81
2022-09-12T03:08:35.075Z,101317.31
2022-09-12T03:11:29.869Z,101324.06
2022-09-12T03:13:56.342Z,101320.41
2022-09-12T03:17:06.036Z,101315.66
2022-09-12T03:19:40.914Z,101315.38
2022-09-12T03:22:26.836Z,101314.31
2022-09-12T03:25:16.961Z,101318.19
2022-09-12T03:27:59.091Z,101310.84
2022-09-12T03:30:26.307Z,101317.13
2022-09-12T03:32:55.237Z,101316.81
2022-09-12T03:35:24.960Z,101313.66
2022-09-12T03:37:53.095Z,101300.56
2022-09-12T03:40:20.125Z,101303.94
2022-09-12T03:42:46.734Z,101309.44
2022-09-12T03:45:13.617Z,101310.72
2022-09-12T03:47:40.386Z,101317.50
2022-09-12T03:50:07.827Z,101317.50
2022-09-12T03:52:34.444Z,101312.75
2022-09-12T03:55:01.060Z,101321.06
2022-09-12T03:57:27.611Z,101313.44
2022-09-12T03:59:54.273Z,101315.53
2022-09-12T04:02:21.254Z,101316.53
2022-09-12T04:04:48.855Z,101327.25
2022-09-12T04:07:16.897Z,101324.88
2022-09-12T04:09:43.988Z,101326.66
2022-09-12T04:12:10.866Z,101329.78
2022-09-12T04:14:37.639Z,101321.13
2022-09-12T04:17:04.303Z,101323.25
2022-09-12T04:19:30.833Z,101324.25
2022-09-12T04:21:57.488Z,101320.59
2022-09-12T04:24:24.049Z,101321.09
2022-09-12T04:26:50.627Z,101320.00
2022-09-12T04:29:17.180Z,101328.63
2022-09-12T04:31:43.975Z,101327.53
2022-09-12T04:34:10.956Z,101325.97
2022-09-12T04:36:37.883Z,101323.31
2022-09-12T04:39:05.446Z,101322.50
2022-09-12T04:41:37.275Z,101314.88
2022-09-12T04:44:07.283Z,101309.13
2022-09-12T04:46:36.960Z,101314.09
2022-09-12T04:49:04.523Z,101313.81
2022-09-12T04:51:34.726Z,101300.94
2022-09-12T04:54:07.891Z,101309.56
2022-09-12T04:56:39.064Z,101307.69
2022-09-12T04:59:05.777Z,101310.56
2022-09-12T05:01:32.430Z,101314.72
2022-09-12T05:04:00.004Z,101302.66
2022-09-12T05:06:30.123Z,101306.31
2022-09-12T05:08:58.471Z,101312.25
2022-09-12T05:11:46.709Z,101310.66
2022-09-12T05:14:14.933Z,101312.75
2022-09-12T05:16:42.849Z,101317.41
2022-09-12T05:19:12.079Z,101310.38
2022-09-12T05:21:38.846Z,101312.16
2022-09-12T05:24:06.637Z,101320.00
2022-09-12T05:26:33.273Z,101306.91
2022-09-12T05:29:00.435Z,101311.09
2022-09-12T05:31:27.953Z,101312.38
2022-09-12T05:33:56.060Z,101300.88
2022-09-12T05:36:29.191Z,101320.22
2022-09-12T05:38:56.326Z,101317.84
2022-09-12T05:41:25.426Z,101317.53
2022-09-12T05:43:56.929Z,101320.72
2022-09-12T05:46:32.010Z,101329.84
2022-09-12T05:49:03.982Z,101329.03
2022-09-12T05:51:34.656Z,101331.91
2022-09-12T05:54:06.097Z,101326.69
2022-09-12T05:56:38.875Z,101330.31
2022-09-12T05:59:08.049Z,101333.19
2022-09-12T06:01:35.482Z,101336.06
2022-09-12T06:04:05.711Z,101328.44
2022-09-12T06:06:36.199Z,101330.03
2022-09-12T06:09:04.689Z,101336.06
2022-09-12T06:11:33.539Z,101341.03
2022-09-12T06:14:01.386Z,101329.53
2022-09-12T06:16:30.424Z,101331.59
2022-09-12T06:18:59.375Z,101333.19
2022-09-12T06:21:26.959Z,101329.84
2022-09-12T06:23:54.818Z,101330.63
2022-09-12T06:26:23.494Z,101332.22
2022-09-12T06:28:50.610Z,101333.78
2022-09-12T06:31:20.496Z,101325.47
2022-09-12T06:33:50.376Z,101325.47
2022-09-12T06:36:21.210Z,101328.63
2022-09-12T06:38:48.790Z,101330.72
2022-09-12T06:41:15.945Z,101331.00
2022-09-12T06:43:42.929Z,101327.34
2022-09-12T06:46:10.642Z,101325.03
2022-09-12T06:48:41.553Z,101326.63
2022-09-12T06:51:13.481Z,101316.69
2022-09-12T06:53:41.132Z,101323.53
2022-09-12T06:56:10.055Z,101324.63
2022-09-12T06:58:36.993Z,101321.25
2022-09-12T07:01:04.588Z,101324.41
2022-09-12T07:03:32.540Z,101320.25
2022-09-12T07:06:04.085Z,101325.50
2022-09-12T07:08:31.609Z,101328.97
2022-09-12T07:11:15.209Z,101319.06
2022-09-12T07:13:44.028Z,101321.44
2022-09-12T07:16:14.823Z,101320.44
2022-09-12T07:18:44.028Z,101330.13
2022-09-12T07:21:13.083Z,101315.25
2022-09-12T07:23:41.912Z,101315.03
2022-09-12T07:26:11.167Z,101313.25
2022-09-12T07:28:38.311Z,101308.56
2022-09-12T07:31:11.466Z,101316.19
2022-09-12T07:33:38.564Z,101306.25
2022-09-12T07:36:11.629Z,101315.47
2022-09-12T07:38:39.108Z,101321.50
2022-09-12T07:41:12.763Z,101322.06
2022-09-12T07:43:39.400Z,101321.06
2022-09-12T07:46:06.595Z,101315.13
2022-09-12T07:48:33.908Z,101322.22
2022-09-12T07:51:02.305Z,101310.19
2022-09-12T07:53:34.483Z,101308.69
2022-09-12T07:56:03.057Z,101306.41
2022-09-12T07:58:30.432Z,101305.09
2022-09-12T08:01:09.397Z,101313.03
2022-09-12T08:03:36.528Z,101312.78
2022-09-12T08:06:15.370Z,101317.03
2022-09-12T08:08:46.007Z,101318.41
2022-09-12T08:11:14.905Z,101311.16
2022-09-12T08:13:42.578Z,101314.59
2022-09-12T08:16:16.345Z,101315.16
2022-09-12T08:18:42.831Z,101317.03
2022-09-12T08:21:14.745Z,101298.72
2022-09-12T08:23:42.750Z,101302.97
2022-09-12T08:26:11.078Z,101313.25
2022-09-12T08:28:40.432Z,101316.69
2022-09-12T08:31:09.154Z,101309.41
2022-09-12T08:33:35.801Z,101319.38
2022-09-12T08:36:15.485Z,101309.44
2022-09-12T08:38:44.343Z,101307.69
2022-09-12T08:41:35.090Z,101302.22
2022-09-12T08:44:23.698Z,101303.06
2022-09-12T08:47:17.595Z,101305.19
2022-09-12T08:49:59.333Z,101309.41
2022-09-12T08:52:34.904Z,101308.16
2022-09-12T08:55:04.529Z,101306.13
2022-09-12T08:57:31.108Z,101305.09
2022-09-12T08:59:57.878Z,101301.47
2022-09-12T09:03:00.024Z,101303.59
2022-09-12T09:05:41.702Z,101303.09
2022-09-12T09:08:20.864Z,101297.88
2022-09-12T09:11:13.084Z,101285.34
2022-09-12T09:14:46.413Z,101290.63
2022-09-12T09:17:20.177Z,101286.00
2022-09-12T09:19:53.395Z,101284.94
2022-09-12T09:22:39.016Z,101288.38
2022-09-12T09:25:22.100Z,101279.22
2022-09-12T09:27:58.611Z,101287.13
2022-09-12T09:30:25.361Z,101289.25
2022-09-12T09:32:55.940Z,101285.84
2022-09-12T09:35:27.631Z,101280.63
2022-09-12T09:37:58.769Z,101274.09
2022-09-12T09:40:42.210Z,101277.25
2022-09-12T09:43:29.091Z,101273.59
2022-09-12T09:46:00.041Z,101264.97
2022-09-12T09:48:34.823Z,101273.66
2022-09-12T09:51:05.053Z,101267.09
2022-09-12T09:54:03.842Z,101267.09
2022-09-12T09:56:45.766Z,101264.75
2022-09-12T09:59:33.782Z,101259.22
2022-09-12T10:02:13.055Z,101266.06
2022-09-12T10:04:52.403Z,101256.38
2022-09-12T10:07:21.687Z,101250.13
2022-09-12T10:10:16.963Z,101257.19
2022-09-12T10:12:44.008Z,101255.91
2022-09-12T10:15:18.700Z,101252.75
2022-09-12T10:17:48.043Z,101246.69
2022-09-12T10:20:34.990Z,101249.84
2022-09-12T10:23:37.201Z,101257.75
2022-09-12T10:26:10.674Z,101243.81
2022-09-12T10:28:45.419Z,101240.41
2022-09-12T10:31:17.013Z,101247.75
2022-09-12T10:33:53.257Z,101248.53
2022-09-12T10:36:20.849Z,101249.03
2022-09-12T10:38:59.178Z,101249.03
2022-09-12T10:41:25.847Z,101244.81
2022-09-12T10:43:52.355Z,101243.75
2022-09-12T10:46:19.204Z,101239.28
2022-09-12T10:48:48.099Z,101240.56
2022-09-12T10:51:29.792Z,101233.47
2022-09-12T10:54:05.484Z,101235.84
2022-09-12T10:56:36.031Z,101229.03
2022-09-12T10:59:21.137Z,101232.94
2022-09-12T11:02:14.332Z,101221.91
2022-09-12T11:05:03.783Z,101223.22
2022-09-12T11:07:42.589Z,101223.69
2022-09-12T11:10:37.355Z,101219.75
2022-09-12T11:13:36.607Z,101218.94
2022-09-12T11:16:33.454Z,101219.44
2022-09-12T11:19:47.180Z,101216.28
2022-09-12T11:22:19.790Z,101221.25
2022-09-12T11:25:08.212Z,101209.91
2022-09-12T11:27:39.853Z,101211.19
2022-09-12T11:30:13.170Z,101210.66
2022-09-12T11:33:17.494Z,101204.34
2022-09-12T11:35:54.944Z,101206.41
2022-09-12T11:38:45.900Z,101201.91
2022-09-12T11:41:23.645Z,101198.97
2022-09-12T11:44:01.070Z,101197.88
2022-09-12T11:46:36.190Z,101193.91
2022-09-12T11:49:13.338Z,101203.59
2022-09-12T11:51:49.494Z,101195.44
2022-09-12T11:54:39.860Z,101197.53
2022-09-12T11:57:30.354Z,101197.25
2022-09-12T12:00:02.817Z,101200.63
2022-09-12T12:02:51.785Z,101190.59
2022-09-12T12:05:26.673Z,101198.72
2022-09-12T12:07:56.151Z,101196.56
2022-09-12T12:10:32.518Z,101195.47
2022-09-12T12:13:02.157Z,101186.97
2022-09-12T12:15:30.364Z,101193.81
2022-09-12T12:18:31.130Z,101187.78
2022-09-12T12:21:33.722Z,101189.81
2022-09-12T12:24:09.177Z,101181.63
2022-09-12T12:26:38.862Z,101188.94
2022-09-12T12:29:28.927Z,101181.03
2022-09-12T12:32:02.064Z,101171.25
2022-09-12T12:34:34.043Z,101179.09
2022-09-12T12:37:20.889Z,101176.44
2022-09-12T12:39:51.068Z,101172.72
2022-09-12T12:42:50.516Z,101174.25
2022-09-12T12:45:17.857Z,101159.19
2022-09-12T12:47:47.291Z,101155.19
2022-09-12T12:50:16.782Z,101159.34
2022-09-12T12:52:51.594Z,101155.34
2022-09-12T12:55:26.658Z,101159.53
2022-09-12T12:57:55.870Z,101158.22
2022-09-12T13:00:25.547Z,101162.38
2022-09-12T13:02:59.960Z,101163.41
2022-09-12T13:05:29.242Z,101166.56
2022-09-12T13:08:06.097Z,101150.97
2022-09-12T13:10:32.937Z,101154.31
2022-09-12T13:13:03.830Z,101154.00
2022-09-12T13:15:36.532Z,101150.56
2022-09-12T13:18:07.542Z,101147.38
2022-09-12T13:20:44.872Z,101145.47
2022-09-12T13:23:29.616Z,101143.13
2022-09-12T13:25:58.555Z,101150.19
2022-09-12T13:28:26.413Z,101144.59
2022-09-12T13:31:20.200Z,101139.84
2022-09-12T13:33:49.879Z,101135.06
2022-09-12T13:37:06.734Z,101126.09
2022-09-12T13:39:49.824Z,101126.59
2022-09-12T13:42:28.930Z,101121.25
2022-09-12T13:45:01.491Z,101114.34
2022-09-12T13:47:33.096Z,101107.44
2022-09-12T13:50:01.365Z,101110.56
2022-09-12T13:52:31.889Z,101101.56
2022-09-12T13:55:00.975Z,101095.44
2022-09-12T13:57:34.444Z,101091.97
2022-09-12T14:00:08.934Z,101087.19
2022-09-12T14:02:36.769Z,101094.00
2022-09-12T14:05:25.805Z,101096.34
2022-09-12T14:07:58.473Z,101084.97
2022-09-12T14:10:39.427Z,101085.44
2022-09-12T14:13:23.198Z,101087.25
2022-09-12T14:15:52.962Z,101076.63
2022-09-12T14:18:28.540Z,101070.03
2022-09-12T14:20:57.475Z,101073.44
2022-09-12T14:23:33.169Z,101072.09
2022-09-12T14:26:07.500Z,101062.81
2022-09-12T14:28:35.179Z,101056.25
2022-09-12T14:31:15.743Z,101050.88
2022-09-12T14:33:53.929Z,101055.38
2022-09-12T14:36:41.731Z,101049.00
2022-09-12T14:39:20.168Z,101056.81
2022-09-12T14:41:46.833Z,101055.38
2022-09-12T14:44:24.933Z,101039.53
2022-09-12T14:46:52.210Z,101052.16
2022-09-12T14:49:27.722Z,101053.72
2022-09-12T14:51:57.546Z,101047.34
2022-09-12T14:54:30.312Z,101046.25
2022-09-12T14:57:05.562Z,101041.22
2022-09-12T14:59:35.096Z,101040.66
2022-09-12T15:02:14.225Z,101050.94
2022-09-12T15:04:43.154Z,101039.00
2022-09-12T15:07:22.925Z,101038.22
2022-09-12T15:09:49.689Z,101033.97
2022-09-12T15:12:16.443Z,101035.53
2022-09-12T15:14:42.981Z,101038.69
2022-09-12T15:17:09.488Z,101036.53
2022-09-12T15:19:36.127Z,101039.13
2022-09-12T15:22:02.755Z,101037.53
2022-09-12T15:24:29.449Z,101041.47
2022-09-12T15:26:56.739Z,101034.06
2022-09-12T15:29:23.245Z,101033.50
2022-09-12T15:31:51.199Z,101026.38
2022-09-12T15:34:17.692Z,101030.84
2022-09-12T15:36:44.218Z,101025.81
2022-09-12T15:39:11.952Z,101023.69
2022-09-12T15:41:39.048Z,101015.78
2022-09-12T15:44:12.482Z,101013.84
2022-09-12T15:46:39.182Z,101007.81
2022-09-12T15:49:07.119Z,101016.53
2022-09-12T15:51:34.155Z,101012.06
2022-09-12T15:54:03.689Z,101014.19
2022-09-12T15:56:30.263Z,101007.06
2022-09-12T15:58:59.655Z,101000.69
2022-09-12T16:01:27.927Z,101002.00
2022-09-12T16:03:54.470Z,101005.13
2022-09-12T16:06:22.161Z,100998.53
2022-09-12T16:08:48.912Z,100999.31
2022-09-12T16:11:24.347Z,100992.19
2022-09-12T16:13:55.668Z,100994.75
2022-09-12T16:16:22.238Z,100988.16
2022-09-12T16:18:48.919Z,100982.34
2022-09-12T16:21:16.025Z,100973.84
2022-09-12T16:23:47.003Z,100969.34
2022-09-12T16:26:14.083Z,100970.16
2022-09-12T16:28:40.691Z,100963.53
2022-09-12T16:31:09.117Z,100962.44
2022-09-12T16:33:37.972Z,100959.53
2022-09-12T16:36:05.987Z,100957.06
2022-09-12T16:38:33.772Z,100953.94
2022-09-12T16:41:06.345Z,100961.09
2022-09-12T16:43:34.564Z,100947.13
2022-09-12T16:46:06.427Z,100954.50
2022-09-12T16:48:36.449Z,100950.81
2022-09-12T16:51:05.845Z,100958.19
2022-09-12T16:53:34.803Z,100946.34
2022-09-12T16:56:01.675Z,100949.81
2022-09-12T16:58:28.328Z,100943.00
2022-09-12T17:01:02.048Z,100947.00
2022-09-12T17:03:28.515Z,100940.44
2022-09-12T17:06:21.970Z,100951.28
2022-09-12T17:08:51.535Z,100939.19
2022-09-12T17:11:19.618Z,100938.44
2022-09-12T17:14:03.716Z,100941.88
2022-09-12T17:16:31.196Z,100929.03
2022-09-12T17:18:57.833Z,100922.22
2022-09-12T17:21:24.560Z,100927.81
2022-09-12T17:23:51.129Z,100936.53
2022-09-12T17:26:17.700Z,100937.09
2022-09-12T17:28:44.230Z,100929.47
2022-09-12T17:31:12.939Z,100928.50
2022-09-12T17:33:39.851Z,100923.00
2022-09-12T17:36:09.275Z,100923.81
2022-09-12T17:38:37.988Z,100919.13
2022-09-12T17:41:15.135Z,100915.53
2022-09-12T17:43:42.163Z,100920.56
2022-09-12T17:46:08.781Z,100908.50
2022-09-12T17:48:35.888Z,100902.47
2022-09-12T17:51:13.394Z,100908.84
2022-09-12T17:53:41.184Z,100911.50
2022-09-12T17:56:08.655Z,100908.16
2022-09-12T17:58:35.788Z,100899.22
2022-09-12T18:01:23.477Z,100905.09
2022-09-12T18:03:51.888Z,100906.69
2022-09-12T18:06:18.447Z,100905.66
2022-09-12T18:08:44.902Z,100910.78
2022-09-12T18:11:11.378Z,100904.75
2022-09-12T18:13:37.905Z,100909.00
2022-09-12T18:16:06.536Z,100905.66
2022-09-12T18:18:34.019Z,100915.47
2022-09-12T18:21:01.143Z,100915.56
2022-09-12T18:23:28.146Z,100911.88
2022-09-12T18:26:03.693Z,100903.03
2022-09-12T18:28:33.109Z,100912.78
2022-09-12T18:30:59.720Z,100910.97
2022-09-12T18:33:26.261Z,100908.41
2022-09-12T18:35:52.738Z,100900.03
2022-09-12T18:38:19.305Z,100896.88
2022-09-12T18:40:47.236Z,100899.56
2022-09-12T18:43:14.402Z,100884.91
2022-09-12T18:45:40.949Z,100892.53
2022-09-12T18:48:07.456Z,100884.16
2022-09-12T18:50:34.007Z,100894.97
2022-09-12T18:53:00.530Z,100881.66
2022-09-12T18:55:27.107Z,100880.56
2022-09-12T18:57:55.450Z,100888.22
2022-09-12T19:00:22.029Z,100876.75
2022-09-12T19:02:48.581Z,100873.63
2022-09-12T19:05:15.134Z,100868.38
2022-09-12T19:07:41.681Z,100866.81
2022-09-12T19:10:08.970Z,100867.13
2022-09-12T19:12:35.521Z,100865.34
2022-09-12T19:15:02.021Z,100866.19
2022-09-12T19:17:28.783Z,100874.34
2022-09-12T19:19:55.514Z,100858.03
2022-09-12T19:22:22.210Z,100851.00
2022-09-12T19:24:48.699Z,100847.88
2022-09-12T19:27:16.088Z,100852.63
2022-09-12T19:29:42.674Z,100841.03
2022-09-12T19:32:09.151Z,100835.31
2022-09-12T19:34:35.651Z,100845.38
2022-09-12T19:37:02.500Z,100846.47
2022-09-12T19:39:29.126Z,100850.47
2022-09-12T19:41:55.594Z,100856.06
2022-09-12T19:44:23.706Z,100847.09
2022-09-12T19:46:50.983Z,100845.06
2022-09-12T19:49:17.517Z,100852.44
2022-09-12T19:51:44.373Z,100846.16
2022-09-12T19:54:11.111Z,100839.94
2022-09-12T19:56:38.226Z,100836.22
2022-09-12T19:59:04.870Z,100830.75
2022-09-12T20:01:31.531Z,100825.50
2022-09-12T20:03:58.640Z,100824.25
2022-09-12T20:06:26.127Z,100819.00
2022-09-12T20:08:52.815Z,100810.66
2022-09-12T20:11:21.160Z,100809.09
2022-09-12T20:13:48.025Z,100800.97
2022-09-12T20:16:24.510Z,100805.72
2022-09-12T20:18:56.954Z,100796.56
2022-09-12T20:21:31.053Z,100796.34
2022-09-12T20:24:12.379Z,100791.19
2022-09-12T20:26:39.808Z,100786.47
2022-09-12T20:29:07.265Z,100790.47
2022-09-12T20:31:34.965Z,100787.56
2022-09-12T20:34:02.010Z,100789.94
2022-09-12T20:36:28.663Z,100788.91
2022-09-12T20:38:58.428Z,100790.78
2022-09-12T20:41:27.026Z,100786.84
2022-09-12T20:43:55.186Z,100786.63
2022-09-12T20:46:23.400Z,100782.16
2022-09-12T20:48:51.282Z,100780.59
2022-09-12T20:51:19.234Z,100771.44
2022-09-12T20:53:45.992Z,100773.28
2022-09-12T20:56:12.654Z,100767.28
2022-09-12T20:58:43.172Z,100762.03
2022-09-12T21:01:11.775Z,100760.22
2022-09-12T21:03:39.481Z,100762.91
2022-09-12T21:06:07.263Z,100757.09
2022-09-12T21:08:35.021Z,100748.19
2022-09-12T21:11:01.916Z,100745.84
2022-09-12T21:13:28.446Z,100744.03
2022-09-12T21:15:59.242Z,100751.16
2022-09-12T21:18:26.243Z,100737.78
2022-09-12T21:20:54.100Z,100730.97
2022-09-12T21:23:21.249Z,100727.84
2022-09-12T21:25:52.355Z,100730.50
2022-09-12T21:28:20.132Z,100720.03
2022-09-12T21:30:50.298Z,100708.44
2022-09-12T21:33:18.465Z,100715.31
2022-09-12T21:35:45.238Z,100713.78
2022-09-12T21:38:11.889Z,100702.50
2022-09-12T21:40:38.487Z,100704.38
2022-09-12T21:43:08.133Z,100703.91
2022-09-12T21:45:37.029Z,100694.22
2022-09-12T21:48:03.867Z,100683.75
2022-09-12T21:50:30.803Z,100681.38
2022-09-12T21:52:57.426Z,100684.28
2022-09-12T21:55:27.028Z,100691.38
2022-09-12T21:57:54.904Z,100676.69
2022-09-12T22:00:22.592Z,100676.22
2022-09-12T22:02:49.116Z,100682.53
2022-09-12T22:05:16.123Z,100675.75
2022-09-12T22:07:42.628Z,100684.97
2022-09-12T22:10:09.601Z,100688.41
2022-09-12T22:12:36.106Z,100681.06
2022-09-12T22:15:17.463Z,100677.94
2022-09-12T22:17:49.329Z,100668.22
2022-09-12T22:20:15.895Z,100666.41
2022-09-12T22:23:01.226Z,100670.41
2022-09-12T22:25:27.935Z,100663.84
2022-09-12T22:27:55.123Z,100666.72
2022-09-12T22:30:22.639Z,100657.06
2022-09-12T22:32:50.471Z,100656.00
2022-09-12T22:35:18.313Z,100648.63
2022-09-12T22:37:46.879Z,100638.16
2022-09-12T22:40:13.864Z,100627.69
2022-09-12T22:42:40.486Z,100635.03
2022-09-12T22:45:07.705Z,100631.91
2022-09-12T22:47:34.245Z,100624.34
2022-09-12T22:50:00.736Z,100617.22
2022-09-12T22:52:27.241Z,100615.97
2022-09-12T22:54:53.785Z,100624.63
2022-09-12T22:57:20.383Z,100613.84
2022-09-12T22:59:46.889Z,100613.38
2022-09-12T23:02:13.465Z,100620.50
2022-09-12T23:04:40.035Z,100610.78
2022-09-12T23:07:06.613Z,100602.66
2022-09-12T23:09:35.445Z,100602.66
2022-09-12T23:12:03.969Z,100605.31
2022-09-12T23:14:30.636Z,100607.97
2022-09-12T23:16:57.131Z,100607.97
2022-09-12T23:19:23.707Z,100596.69
2022-09-12T23:21:50.190Z,100590.16
2022-09-12T23:24:16.783Z,100587.03
2022-09-12T23:26:43.295Z,100580.75
2022-09-12T23:29:09.979Z,100580.75
2022-09-12T23:31:36.557Z,100589.19
2022-09-12T23:34:05.910Z,100581.63
2022-09-12T23:36:33.021Z,100583.72
2022-09-12T23:38:59.860Z,100577.16
2022-09-12T23:41:26.630Z,100562.47
2022-09-12T23:43:53.231Z,100568.25
2022-09-12T23:46:20.986Z,100562.25
2022-09-12T23:48:48.209Z,100562.78
2022-09-12T23:51:14.893Z,100560.66
2022-09-12T23:53:41.741Z,100554.13
2022-09-12T23:56:08.514Z,100552.53
2022-09-12T23:58:35.038Z,100566.22
